Athens, WV

6:21 AM EDT on October 21, 2014 (GMT -0400)
Oxley Hollow Road | Change Station
CLOSE
Current Station
Personal Weather Station
Location: Princeton, WV
Elevation: 2411 ft
Nearby Weather Stations

Elev 2411 ft 37.44 °N, 81.03 °W | Updated 2 minutes ago

Partly Cloudy
Partly Cloudy
41.5 °F
Feels Like 42 °F
N
0.0
Wind Variable Wind from North
Gusts 0.0 mph

Today
High -- | Low -- °F
--% Chance of Precip.
Yesterday
High -- | Low -- °F
Precip. -- in
7:37 AM 6:38 PM
Waning Crescent, 6% visible
Pressure 29.91 in
Visibility 10.0 miles
Clouds Few 5500 ft
Scattered Clouds 9000 ft
Windchill 42 °F
Dew Point 41 °F
Humidity 99%
Rainfall -999.00 in
Snow Depth Not available.
UV 0 out of 12
Pollen 1.60 out of 12
Air Quality Not available.
Flu Activity Sporadic
METAR KBLF 210952Z AUTO 24003KT 10SM FEW055 SCT090 09/07 A2995 RMK AO2 SLP128 T00940067

More Conditions Fewer Conditions

Pressure 29.91 in
Visibility 10.0 miles
Clouds Few 5500 ft
Scattered Clouds 9000 ft
Windchill 42 °F
Dew Point 41 °F
Humidity 99%
Rainfall -999.00 in
Snow Depth Not available.
UV 0 out of 12
Pollen 1.60 out of 12
Air Quality Not available.
Flu Activity Sporadic
METAR KBLF 210952Z AUTO 24003KT 10SM FEW055 SCT090 09/07 A2995 RMK AO2 SLP128 T00940067

More Conditions Fewer Conditions

10-Day Weather Forecast

Almanac

Astronomy

Oct. 21, 2014 Rise Set
Actual Time 7:37 AM EDT 6:38 PM EDT
Civil Twilight 7:11 AM EDT 7:05 PM EDT
Nautical Twilight 6:40 AM EDT 7:35 PM EDT
Astronomical Twilight 6:10 AM EDT 8:06 PM EDT
Moon 5:23 AM EDT 5:29 PM EDT
Length of Visible Light 11h 54m
Length of Day
11h 01m
Tomorrow will be 2m 16s shorter.
Waning Crescent, 6% of the Moon is Illuminated
Today
Waning Crescent
Oct 23
New
Oct 30
First Quarter
Nov 6
Full
Nov 14
Last Quarter

Today's Extremes

State Highs State Lows

Community

WunderPhotos

Upload Photos

1,763,625 photos uploaded!

Nearby

Snow Depth

Station Depth Elevation
No new snow has been reported.

Earthquake Activity

City Distance Mag. Time & Date
No recent earthquake activity has been reported nearby.
Minimum magnitude displayed is 2.5.

Coastal Water Temperatures

Place Temperature
No Stations Reporting

Nearby Weather Stations